Terminal Aerodrome Forecast
Issued by NWS Green Bay, WI

Home | Current Version | Previous Version | Text Only | Print | Product List | Glossary Off
Versions: 1 2 3 4 5 6 7 8 9 10 11 12 13 14 15 16 17 18

161
FTUS43 KGRB 192115 AAA
TAFGRB
TAF AMD
KGRB 192115Z 1921/2018 35008KT P6SM SCT050
     FM200300 01003KT P6SM SKC
     FM201500 24005KT P6SM BKN200=

USA.gov is the U.S. government's official web portal to all federal, state and local government web resources and services.